TK7368 / TC-SBS 7700 Squawk Report (15th of July, 2019)

Aircraft B738 Reg No. TC-SBS Age 20 years old
Model 737 Jet engines 2 First flight 01-06-99
Registered 23-08-14 Rollout N/A Delivered 16-06-99
Construction No. 29917 Line No. 0298 Series 8AS
ADSHEX 4BCC53 Airline name AnadoluJet Owner Aircastle Investments
Airfield based Ankara-Esenboga~Ankara~TC First tracked 2017-07-13 07:05:00

Flight history for TC-SBS

Route Flight No Date Playback
Sabiha Gokcen (SAW) - Iğdır Airport (IGD) TK7308 2019-08-20 10:37:00
???? TK7331 2019-08-20 09:07:00
???? TK7330 2019-08-20 08:07:00
Erkilet (ASR) - Sabiha Gokcen (SAW) TK7289 2019-08-20 05:22:00
???? TK7288 2019-08-19 21:50:00
Adnan Menderes (ADB) - Sabiha Gokcen (SAW) TK7509 2019-08-19 21:22:00
Sabiha Gokcen (SAW) - Adnan Menderes (ADB) TK7508 2019-08-19 18:07:00
Trabzon (TZX) - Sabiha Gokcen (SAW) TK7431 2019-08-19 16:49:00
Sabiha Gokcen (SAW) - Trabzon (TZX) TK7430 2019-08-19 13:50:00
Dalaman (DLM) - Sabiha Gokcen (SAW) TK7447 2019-08-19 12:42:00
Sabiha Gokcen (SAW) - Dalaman (DLM) TK7446 2019-08-19 10:03:00
Diyarbakir (DIY) - Sabiha Gokcen (SAW) TK7211 2019-08-19 08:30:00
???? TK7210 2019-08-19 05:24:00
Samsun-Çarşamba Airport (SZF) - Sabiha Gokcen (SAW) TK7239 2019-08-18 19:08:00
Sabiha Gokcen (SAW) - Samsun-Çarşamba Airport (SZF) TK7238 2019-08-18 18:03:00
Adana (ADA) - Sabiha Gokcen (SAW) TK7267 2019-08-18 15:38:00
Sabiha Gokcen (SAW) - Adana (ADA) TK7266 2019-08-18 11:43:00
Diyarbakir (DIY) - Sabiha Gokcen (SAW) TK7211 2019-08-18 10:33:00
???? TK7210 2019-08-18 06:46:00
Ordu–Giresun Airport (OGU) - Sabiha Gokcen (SAW) TK7335 2019-08-18 05:34:00
Time Lat Lon Altitude Heading Speed Vertical Rate
2019-07-15 13:41:43 GMT 40.342255 33.161377 23,250 189 435 -4032
2019-07-15 13:41:32 GMT 40.363220 33.164551 23,875 183 444 -3456
2019-07-15 13:41:19 GMT 40.390209 33.163357 24,650 174 454 -3712
2019-07-15 13:41:09 GMT 40.410782 33.158447 25,175 166 466 -3328
2019-07-15 13:40:59 GMT 40.431923 33.149433 25,750 157 474 -2496
2019-07-15 13:40:49 GMT 40.451431 33.137329 26,050 149 481 -1856
2019-07-15 13:40:35 GMT 40.478382 33.113232 26,350 141 485 -832
2019-07-15 13:40:27 GMT 40.491943 33.096741 26,450 130 493 -960
2019-07-15 13:40:02 GMT 40.523724 33.035950 26,900 105 504 -1024
2019-07-15 13:39:50 GMT 40.532753 33.002617 27,075 104 504 -1024
2019-07-15 13:39:38 GMT 40.537224 32.965164 27,275 89 507 -1088
2019-07-15 13:39:26 GMT 40.535130 32.927086 27,475 81 512 -1280
2019-07-15 13:39:15 GMT 40.531265 32.895386 27,675 80 529 -1472
2019-07-15 13:39:04 GMT 40.526917 32.859680 28,000 80 540 -3072
2019-07-15 13:38:53 GMT 40.522476 32.823303 28,700 80 543 -5184
2019-07-15 13:38:41 GMT 40.517624 32.784485 29,775 80 538 -5760
2019-07-15 13:38:31 GMT 40.513622 32.751743 30,725 80 532 -5696
2019-07-15 13:38:18 GMT 40.508640 32.711105 31,900 81 526 -5440
2019-07-15 13:38:09 GMT 40.505127 32.681641 32,725 81 520 -5760
2019-07-15 13:37:57 GMT 40.500912 32.645187 33,800 81 510 -5120
2019-07-15 13:37:47 GMT 40.497280 32.613415 34,625 81 507 -3648
2019-07-15 13:37:34 GMT 40.493183 32.577023 35,275 81 505 -2432
2019-07-15 13:37:24 GMT 40.489460 32.544376 35,725 81 502 -2688
2019-07-15 13:37:10 GMT 40.484894 32.504211 36,300 81 498 -2496
2019-07-15 13:36:58 GMT 40.480335 32.467846 36,525 80 497 64
2019-07-15 13:36:40 GMT 40.473495 32.413818 36,525 80 495 -256
2019-07-15 13:36:37 GMT 40.472443 32.405518 36,575 80 494 -576
2019-07-15 13:36:25 GMT 40.468140 32.371277 36,700 80 493 -320
2019-07-15 13:36:07 GMT 40.461182 32.317139 36,475 80 492 1088
2019-07-15 13:36:01 GMT 40.458828 32.298866 36,350 80 492 1088
2019-07-15 13:35:49 GMT 40.454224 32.263000 36,050 80 492 1024
2019-07-15 13:35:41 GMT 40.451523 32.241821 36,050 80 491 896
2019-07-15 13:35:30 GMT 40.447083 32.207764 35,875 80 492 960
2019-07-15 13:35:18 GMT 40.442505 32.172546 35,650 80 493 1408
2019-07-15 13:35:03 GMT 40.436718 32.128391 35,275 80 494 1472
2019-07-15 13:34:49 GMT 40.431412 32.088192 34,950 80 496 1472
2019-07-15 13:34:44 GMT 40.429409 32.072777 34,825 80 499 1408
2019-07-15 13:34:34 GMT 40.425312 32.041752 34,625 80 504 1024
2019-07-15 13:34:23 GMT 40.421127 32.009827 34,450 80 506 1024
2019-07-15 13:34:10 GMT 40.416046 31.971130 34,275 80 507 896
2019-07-15 13:33:47 GMT 40.406551 31.899178 33,000 80 509 1600
2019-07-15 13:33:36 GMT 40.402496 31.868286 33,750 80 508 1472
2019-07-15 13:33:13 GMT 40.393204 31.797974 33,175 80 509 1600
2019-07-15 13:33:04 GMT 40.389233 31.768154 32,900 79 510 1600
2019-07-15 13:32:56 GMT 40.386440 31.747492 32,725 79 510 1600
2019-07-15 13:32:48 GMT 40.382950 31.721960 32,525 79 510 1664
2019-07-15 13:32:37 GMT 40.378189 31.687256 32,200 79 511 1792
2019-07-15 13:32:25 GMT 40.373428 31.651855 31,875 82 513 1728
2019-07-15 13:32:14 GMT 40.370407 31.617310 31,550 86 515 1792
2019-07-15 13:32:05 GMT 40.369263 31.589251 31,300 87 516 1728
2019-07-15 13:32:02 GMT 40.369217 31.580511 31,250 89 516 1344
2019-07-15 13:31:50 GMT 40.370361 31.542542 31,000 94 514 1344
2019-07-15 13:31:38 GMT 40.373932 31.505554 30,725 99 512 1344
2019-07-15 13:31:28 GMT 40.378201 31.475704 30,500 100 510 1408
2019-07-15 13:31:16 GMT 40.383316 31.439880 30,225 100 509 1472
2019-07-15 13:31:05 GMT 40.388306 31.404724 29,975 100 508 1472
2019-07-15 13:30:57 GMT 40.392166 31.377516 29,750 100 507 1408
2019-07-15 13:30:53 GMT 40.393192 31.370274 29,700 100 506 1472
2019-07-15 13:30:46 GMT 40.396263 31.348551 29,525 100 506 1536
2019-07-15 13:30:38 GMT 40.399708 31.324455 29,325 100 505 1472
2019-07-15 13:30:30 GMT 40.403294 31.299299 29,100 100 502 1408
2019-07-15 13:30:18 GMT 40.408367 31.263407 28,825 100 500 1600
2019-07-15 13:30:12 GMT 40.410828 31.246094 28,700 100 500 1536
2019-07-15 13:30:08 GMT 40.412521 31.234192 28,600 100 499 1344
2019-07-15 13:30:05 GMT 40.413769 31.225267 28,525 100 498 1408
2019-07-15 13:29:56 GMT 40.417511 31.198608 28,300 100 496 1536
2019-07-15 13:29:51 GMT 40.419525 31.184448 28,200 100 495 1600
2019-07-15 13:29:46 GMT 40.421776 31.168526 28,050 100 495 1664
2019-07-15 13:29:35 GMT 40.426117 31.137329 27,800 100 493 1536
2019-07-15 13:29:24 GMT 40.430851 31.103855 27,475 100 491 1472
2019-07-15 13:29:21 GMT 40.435638 31.069397 27,200 100 488 1600
2019-07-15 13:29:12 GMT 40.440170 31.036926 27,200 100 488 1600
2019-07-15 13:29:01 GMT 40.441559 31.027138 26,875 100 482 1472
2019-07-15 13:28:49 GMT 40.444839 31.003540 26,700 100 481 1344
2019-07-15 13:28:38 GMT 40.449097 30.972717 26,175 100 474 1472
2019-07-15 13:28:29 GMT 40.452637 30.947239 26,275 100 473 1472
2019-07-15 13:28:25 GMT 40.454685 30.932570 26,175 100 469 1536
2019-07-15 13:28:15 GMT 40.458481 30.905090 25,950 100 468 1536
2019-07-15 13:28:10 GMT 40.460037 30.893921 25,850 100 467 1600
2019-07-15 13:28:03 GMT 40.462879 30.873329 25,525 100 464 1664
2019-07-15 13:28:00 GMT 40.464203 30.863953 25,550 100 463 1728
2019-07-15 13:27:51 GMT 40.467270 30.841858 25,175 100 461 1664
2019-07-15 13:27:48 GMT 40.468697 30.831444 25,100 100 459 1600
2019-07-15 13:27:40 GMT 40.471584 30.810658 25,025 100 457 1472
2019-07-15 13:27:37 GMT 40.472794 30.801920 24,950 100 456 1472
2019-07-15 13:27:27 GMT 40.476471 30.775330 24,725 100 453 1920
2019-07-15 13:27:17 GMT 40.480453 30.746216 24,350 100 449 1984
2019-07-15 13:27:03 GMT 40.485397 30.709839 23,875 99 446 2112
2019-07-15 13:26:54 GMT 40.488922 30.683167 23,550 99 443 2176
2019-07-15 13:26:43 GMT 40.492672 30.654039 23,175 99 442 1920
2019-07-15 13:26:30 GMT 40.496769 30.622456 22,825 99 439 2240
2019-07-15 13:26:23 GMT 40.498959 30.605663 22,250 99 429 1216
2019-07-15 13:26:20 GMT 40.500092 30.596802 22,500 99 435 1024
2019-07-15 13:26:12 GMT 40.502930 30.575134 22,250 99 429 1216
2019-07-15 13:26:08 GMT 40.504589 30.562342 22,250 99 426 1536
2019-07-15 13:26:03 GMT 40.506035 30.551168 22,125 99 422 1536
2019-07-15 13:25:55 GMT 40.508312 30.534065 21,975 99 418 1600
2019-07-15 13:25:51 GMT 40.509895 30.522079 21,850 99 417 1600
2019-07-15 13:25:45 GMT 40.511719 30.508667 21,700 100 411 1664
2019-07-15 13:25:40 GMT 40.513390 30.496300 21,575 100 410 1664
2019-07-15 13:25:34 GMT 40.515793 30.479248 21,375 100 405 1600
2019-07-15 13:25:30 GMT 40.516880 30.472017 21,300 101 404 1536
2019-07-15 13:25:24 GMT 40.519302 30.455662 21,150 99 400 1408
2019-07-15 13:25:19 GMT 40.520466 30.446112 21,050 94 396 1408
2019-07-15 13:25:10 GMT 40.521210 30.424076 20,850 88 393 1344
2019-07-15 13:25:07 GMT 40.520836 30.417459 20,775 81 387 1728
2019-07-15 13:25:01 GMT 40.518951 30.402161 20,450 72 383 3008
2019-07-15 13:24:57 GMT 40.517017 30.392740 20,400 72 383 3008
2019-07-15 13:24:47 GMT 40.510345 30.371704 19,925 64 382 2944
2019-07-15 13:24:38 GMT 40.504169 30.354477 19,525 64 382 3072
2019-07-15 13:24:35 GMT 40.501648 30.347351 19,375 64 382 3072
2019-07-15 13:24:28 GMT 40.495464 30.330193 18,950 64 382 3008
2019-07-15 13:24:25 GMT 40.493977 30.326012 18,850 64 382 3008
2019-07-15 13:24:16 GMT 40.486588 30.305481 18,375 64 381 3072
2019-07-15 13:24:03 GMT 40.477936 30.281250 17,800 64 380 3136
2019-07-15 13:23:53 GMT 40.470001 30.259157 17,275 64 379 3136
2019-07-15 13:23:42 GMT 40.461502 30.235413 16,700 64 378 3072
2019-07-15 13:23:32 GMT 40.454361 30.215515 16,225 64 378 3136
2019-07-15 13:23:21 GMT 40.446167 30.192739 15,700 64 376 2240
2019-07-15 13:23:12 GMT 40.438889 30.172607 15,375 64 369 2240
2019-07-15 13:23:01 GMT 40.431290 30.151733 14,975 64 364 2432
2019-07-15 13:22:57 GMT 40.428524 30.144112 14,825 64 364 2432
2019-07-15 13:22:50 GMT 40.423462 30.130188 14,550 64 364 2560
2019-07-15 13:22:46 GMT 40.420532 30.122192 14,375 64 364 2496
2019-07-15 13:22:42 GMT 40.413719 30.103476 14,000 64 364 2560
2019-07-15 13:22:34 GMT 40.412277 30.099480 13,925 64 364 2560
2019-07-15 13:22:31 GMT 40.409950 30.093113 13,800 64 363 2496
2019-07-15 13:22:28 GMT 40.407948 30.087559 13,675 64 362 2432
2019-07-15 13:22:23 GMT 40.403896 30.076447 13,425 64 361 1408
2019-07-15 13:22:18 GMT 40.400127 30.066147 13,325 64 361 896
2019-07-15 13:22:11 GMT 40.395355 30.053162 13,225 64 361 832
2019-07-15 13:22:07 GMT 40.392632 30.045671 13,175 64 361 832
2019-07-15 13:21:59 GMT 40.386108 30.027832 13,075 64 361 832
2019-07-15 13:21:50 GMT 40.380203 30.011715 12,975 64 354 1152
2019-07-15 13:21:47 GMT 40.378326 30.006714 12,925 64 352 1600
2019-07-15 13:21:43 GMT 40.374569 29.996359 12,775 64 346 2944
2019-07-15 13:21:36 GMT 40.367123 29.975883 12,200 64 345 3136
2019-07-15 13:21:28 GMT 40.364822 29.969482 12,025 64 344 3136
2019-07-15 13:21:23 GMT 40.361801 29.961243 11,800 64 342 3328
2019-07-15 13:21:13 GMT 40.354599 29.941427 11,125 64 339 2496
2019-07-15 13:21:08 GMT 40.351227 29.932190 11,050 64 336 1536
2019-07-15 13:21:01 GMT 40.346313 29.918705 10,900 64 328 1088
2019-07-15 13:20:55 GMT 40.342804 29.909180 10,825 64 319 896
2019-07-15 13:20:51 GMT 40.340057 29.901611 10,675 64 306 1600
2019-07-15 13:20:47 GMT 40.337585 29.894836 10,675 64 301 2560
2019-07-15 13:20:40 GMT 40.333603 29.883936 10,400 64 298 3520
2019-07-15 13:20:33 GMT 40.329437 29.872559 10,000 64 297 3328
2019-07-15 13:20:30 GMT 40.326992 29.865709 9,775 64 296 3584
2019-07-15 13:20:26 GMT 40.324619 29.859217 9,550 64 295 3776
2019-07-15 13:20:18 GMT 40.320381 29.847607 9,200 64 296 3776
2019-07-15 13:20:13 GMT 40.317627 29.840149 8,825 64 296 3648
2019-07-15 13:20:07 GMT 40.313782 29.829834 8,450 65 296 3712
2019-07-15 13:20:03 GMT 40.311996 29.824585 8,250 67 296 3840
2019-07-15 13:19:58 GMT 40.308884 29.814636 7,900 70 296 3200
2019-07-15 13:19:55 GMT 40.307720 29.810215 7,600 75 294 2304
2019-07-15 13:19:47 GMT 40.304184 29.793049 7,375 76 293 2496
2019-07-15 13:19:43 GMT 40.303532 29.789555 7,300 76 293 2496
2019-07-15 13:19:35 GMT 40.300972 29.775822 6,975 75 291 1984
2019-07-15 13:19:31 GMT 40.299728 29.769348 6,850 75 290 1920
2019-07-15 13:19:25 GMT 40.297394 29.757812 6,625 74 288 2880
2019-07-15 13:19:21 GMT 40.296249 29.752441 6,500 74 286 3328
2019-07-15 13:19:14 GMT 40.293503 29.739807 6,075 73 284 3520
2019-07-15 13:19:09 GMT 40.292038 29.733154 5,850 73 282 3264
2019-07-15 13:19:03 GMT 40.289612 29.722046 5,500 73 278 3200
2019-07-15 13:18:58 GMT 40.287983 29.714647 5,250 74 276 3520
2019-07-15 13:18:53 GMT 40.285843 29.704971 4,900 73 275 3584
2019-07-15 13:18:40 GMT 40.281601 29.685547 4,550 74 273 2944

Making use of Plane Finder data

You are free to use the raw flight data, aircraft information and images provided in this report for your own purposes provided the data is correctly attributed to Plane Finder. We ask that you please credit Plane Finder and link to planefinder.net in close proximity to the content.

Optionally one of the following logos (no smaller then 150x24px) can be used and must link to planefinder.net

Embedding the Plane Finder map

You are welcome to embed the Plane Finder playback map on your website to offer visitors a more interactive experience. We suggest using the following HTML code:

<iframe src="//planefinder.net/data/report/TK7368-TC-SBS-7700-squawk-2019-07-15/map" width="800" height="600" seamless="seamless"></iframe>

Where our data comes from

Plane Finder has a global network of data feeds and antenna radars that receive data broadcast directly from aircraft. The primary technologies used are ADS-B and MLAT. We also show feeds from the FAA and a FLARM glider feed.

Click here to find out more about the Plane Finder network.

How we collect our data